sensor_id;sensor_type;location;lat;lon;timestamp;P1;durP1;ratioP1;P2;durP2;ratioP2
45103;SDS011;30865;51.288;4.572;2023-05-07T00:00:46;4.32;;;2.72;;
45103;SDS011;30865;51.288;4.572;2023-05-07T00:03:11;3.85;;;2.60;;
45103;SDS011;30865;51.288;4.572;2023-05-07T00:05:38;3.63;;;2.50;;
45103;SDS011;30865;51.288;4.572;2023-05-07T00:08:12;6.85;;;2.75;;
45103;SDS011;30865;51.288;4.572;2023-05-07T00:10:37;3.55;;;2.35;;
45103;SDS011;30865;51.288;4.572;2023-05-07T00:13:03;2.80;;;2.60;;
45103;SDS011;30865;51.288;4.572;2023-05-07T00:15:38;4.63;;;2.10;;
45103;SDS011;30865;51.288;4.572;2023-05-07T00:18:03;2.00;;;1.77;;
45103;SDS011;30865;51.288;4.572;2023-05-07T00:20:29;2.90;;;2.20;;
45103;SDS011;30865;51.288;4.572;2023-05-07T00:22:55;2.42;;;2.10;;
45103;SDS011;30865;51.288;4.572;2023-05-07T00:25:20;5.07;;;2.15;;
45103;SDS011;30865;51.288;4.572;2023-05-07T00:27:46;3.25;;;2.35;;
45103;SDS011;30865;51.288;4.572;2023-05-07T00:30:11;4.65;;;3.33;;
45103;SDS011;30865;51.288;4.572;2023-05-07T00:32:37;4.85;;;2.63;;
45103;SDS011;30865;51.288;4.572;2023-05-07T00:35:03;2.97;;;2.28;;
45103;SDS011;30865;51.288;4.572;2023-05-07T00:37:30;2.92;;;2.30;;
45103;SDS011;30865;51.288;4.572;2023-05-07T00:39:56;2.80;;;2.20;;
45103;SDS011;30865;51.288;4.572;2023-05-07T00:42:21;4.60;;;2.55;;
45103;SDS011;30865;51.288;4.572;2023-05-07T00:44:47;3.38;;;2.53;;
45103;SDS011;30865;51.288;4.572;2023-05-07T00:47:12;4.40;;;2.63;;
45103;SDS011;30865;51.288;4.572;2023-05-07T00:49:39;7.78;;;2.50;;
45103;SDS011;30865;51.288;4.572;2023-05-07T00:52:07;11.02;;;3.10;;
45103;SDS011;30865;51.288;4.572;2023-05-07T00:54:34;7.07;;;2.80;;
45103;SDS011;30865;51.288;4.572;2023-05-07T00:57:00;5.25;;;2.90;;
45103;SDS011;30865;51.288;4.572;2023-05-07T00:59:27;4.35;;;2.70;;
45103;SDS011;30865;51.288;4.572;2023-05-07T01:01:53;4.07;;;2.97;;
45103;SDS011;30865;51.288;4.572;2023-05-07T01:04:18;4.00;;;2.78;;
45103;SDS011;30865;51.288;4.572;2023-05-07T01:06:44;3.97;;;2.58;;
45103;SDS011;30865;51.288;4.572;2023-05-07T01:09:11;7.50;;;3.05;;
45103;SDS011;30865;51.288;4.572;2023-05-07T01:11:37;4.72;;;2.72;;
45103;SDS011;30865;51.288;4.572;2023-05-07T01:14:04;3.40;;;2.65;;
45103;SDS011;30865;51.288;4.572;2023-05-07T01:16:30;5.38;;;3.10;;
45103;SDS011;30865;51.288;4.572;2023-05-07T01:18:56;4.28;;;3.30;;
45103;SDS011;30865;51.288;4.572;2023-05-07T01:21:24;4.90;;;2.88;;
45103;SDS011;30865;51.288;4.572;2023-05-07T01:23:51;4.03;;;2.42;;
45103;SDS011;30865;51.288;4.572;2023-05-07T01:26:18;3.25;;;2.38;;
45103;SDS011;30865;51.288;4.572;2023-05-07T01:28:44;3.85;;;2.75;;
45103;SDS011;30865;51.288;4.572;2023-05-07T01:31:10;3.55;;;2.60;;
45103;SDS011;30865;51.288;4.572;2023-05-07T01:33:38;4.60;;;2.55;;
45103;SDS011;30865;51.288;4.572;2023-05-07T01:36:06;3.65;;;2.05;;
45103;SDS011;30865;51.288;4.572;2023-05-07T01:38:34;5.78;;;2.40;;
45103;SDS011;30865;51.288;4.572;2023-05-07T01:41:01;3.67;;;2.45;;
45103;SDS011;30865;51.288;4.572;2023-05-07T01:43:27;3.80;;;2.80;;
45103;SDS011;30865;51.288;4.572;2023-05-07T01:45:54;4.05;;;2.95;;
45103;SDS011;30865;51.288;4.572;2023-05-07T01:48:20;2.30;;;2.05;;
45103;SDS011;30865;51.288;4.572;2023-05-07T01:50:46;4.93;;;2.60;;
45103;SDS011;30865;51.288;4.572;2023-05-07T01:53:12;3.35;;;2.28;;
45103;SDS011;30865;51.288;4.572;2023-05-07T01:55:38;3.50;;;2.35;;
45103;SDS011;30865;51.288;4.572;2023-05-07T01:58:04;2.85;;;2.17;;
45103;SDS011;30865;51.288;4.572;2023-05-07T02:00:30;2.63;;;2.33;;
45103;SDS011;30865;51.288;4.572;2023-05-07T02:02:56;3.35;;;2.60;;
45103;SDS011;30865;51.288;4.572;2023-05-07T02:05:22;3.63;;;2.42;;
45103;SDS011;30865;51.288;4.572;2023-05-07T02:07:48;2.58;;;2.30;;
45103;SDS011;30865;51.288;4.572;2023-05-07T02:10:13;5.05;;;2.35;;
45103;SDS011;30865;51.288;4.572;2023-05-07T02:12:39;3.38;;;2.13;;
45103;SDS011;30865;51.288;4.572;2023-05-07T02:15:04;3.13;;;2.15;;
45103;SDS011;30865;51.288;4.572;2023-05-07T02:17:30;3.20;;;2.63;;
45103;SDS011;30865;51.288;4.572;2023-05-07T02:19:59;9.98;;;2.70;;
45103;SDS011;30865;51.288;4.572;2023-05-07T02:22:25;3.58;;;2.50;;
45103;SDS011;30865;51.288;4.572;2023-05-07T02:24:50;4.60;;;2.83;;
45103;SDS011;30865;51.288;4.572;2023-05-07T02:27:16;10.93;;;4.10;;
45103;SDS011;30865;51.288;4.572;2023-05-07T02:29:41;19.55;;;3.67;;
45103;SDS011;30865;51.288;4.572;2023-05-07T02:32:09;4.65;;;2.63;;
45103;SDS011;30865;51.288;4.572;2023-05-07T02:34:35;7.20;;;3.13;;
45103;SDS011;30865;51.288;4.572;2023-05-07T02:37:00;3.10;;;2.78;;
45103;SDS011;30865;51.288;4.572;2023-05-07T02:39:26;4.03;;;2.80;;
45103;SDS011;30865;51.288;4.572;2023-05-07T02:41:51;2.88;;;2.38;;
45103;SDS011;30865;51.288;4.572;2023-05-07T02:44:17;4.07;;;2.33;;
45103;SDS011;30865;51.288;4.572;2023-05-07T02:46:42;3.65;;;2.38;;
45103;SDS011;30865;51.288;4.572;2023-05-07T02:49:08;3.65;;;2.22;;
45103;SDS011;30865;51.288;4.572;2023-05-07T02:51:33;2.60;;;2.40;;
45103;SDS011;30865;51.288;4.572;2023-05-07T02:53:59;3.33;;;2.47;;
45103;SDS011;30865;51.288;4.572;2023-05-07T02:56:26;5.38;;;2.95;;
45103;SDS011;30865;51.288;4.572;2023-05-07T02:58:51;4.38;;;2.67;;
45103;SDS011;30865;51.288;4.572;2023-05-07T03:01:17;4.85;;;2.90;;
45103;SDS011;30865;51.288;4.572;2023-05-07T03:03:42;4.35;;;3.08;;
45103;SDS011;30865;51.288;4.572;2023-05-07T03:06:08;3.72;;;2.90;;
45103;SDS011;30865;51.288;4.572;2023-05-07T03:08:34;4.43;;;2.67;;
45103;SDS011;30865;51.288;4.572;2023-05-07T03:11:01;3.25;;;2.95;;
45103;SDS011;30865;51.288;4.572;2023-05-07T03:13:27;4.88;;;2.70;;
45103;SDS011;30865;51.288;4.572;2023-05-07T03:15:52;4.50;;;3.13;;
45103;SDS011;30865;51.288;4.572;2023-05-07T03:18:18;3.45;;;2.90;;
45103;SDS011;30865;51.288;4.572;2023-05-07T03:20:43;4.43;;;2.88;;
45103;SDS011;30865;51.288;4.572;2023-05-07T03:23:08;3.65;;;3.00;;
45103;SDS011;30865;51.288;4.572;2023-05-07T03:25:34;5.20;;;3.00;;
45103;SDS011;30865;51.288;4.572;2023-05-07T03:27:59;4.78;;;2.70;;
45103;SDS011;30865;51.288;4.572;2023-05-07T03:30:25;5.55;;;3.20;;
45103;SDS011;30865;51.288;4.572;2023-05-07T03:32:51;5.00;;;3.47;;
45103;SDS011;30865;51.288;4.572;2023-05-07T03:35:19;5.20;;;3.35;;
45103;SDS011;30865;51.288;4.572;2023-05-07T03:37:45;3.80;;;2.75;;
45103;SDS011;30865;51.288;4.572;2023-05-07T03:40:11;4.57;;;2.78;;
45103;SDS011;30865;51.288;4.572;2023-05-07T03:42:37;4.10;;;3.10;;
45103;SDS011;30865;51.288;4.572;2023-05-07T03:45:02;4.03;;;2.75;;
45103;SDS011;30865;51.288;4.572;2023-05-07T03:47:28;11.18;;;3.60;;
45103;SDS011;30865;51.288;4.572;2023-05-07T03:49:53;8.32;;;3.65;;
45103;SDS011;30865;51.288;4.572;2023-05-07T03:52:20;5.55;;;2.65;;
45103;SDS011;30865;51.288;4.572;2023-05-07T03:54:49;8.88;;;2.60;;
45103;SDS011;30865;51.288;4.572;2023-05-07T03:57:15;6.07;;;2.65;;
45103;SDS011;30865;51.288;4.572;2023-05-07T03:59:40;3.50;;;3.17;;
45103;SDS011;30865;51.288;4.572;2023-05-07T04:02:06;4.88;;;2.72;;
45103;SDS011;30865;51.288;4.572;2023-05-07T04:04:31;6.72;;;2.83;;
45103;SDS011;30865;51.288;4.572;2023-05-07T04:06:57;3.63;;;3.08;;
45103;SDS011;30865;51.288;4.572;2023-05-07T04:09:24;5.90;;;3.17;;
45103;SDS011;30865;51.288;4.572;2023-05-07T04:11:50;6.35;;;3.25;;
45103;SDS011;30865;51.288;4.572;2023-05-07T04:14:15;9.68;;;3.80;;
45103;SDS011;30865;51.288;4.572;2023-05-07T04:16:41;6.82;;;3.53;;
45103;SDS011;30865;51.288;4.572;2023-05-07T04:19:06;3.58;;;2.65;;
45103;SDS011;30865;51.288;4.572;2023-05-07T04:21:32;4.57;;;2.85;;
45103;SDS011;30865;51.288;4.572;2023-05-07T04:23:57;4.97;;;2.92;;
45103;SDS011;30865;51.288;4.572;2023-05-07T04:26:23;3.58;;;2.90;;
45103;SDS011;30865;51.288;4.572;2023-05-07T04:28:49;3.50;;;2.72;;
45103;SDS011;30865;51.288;4.572;2023-05-07T04:31:14;3.38;;;2.60;;
45103;SDS011;30865;51.288;4.572;2023-05-07T04:33:40;6.82;;;2.65;;
45103;SDS011;30865;51.288;4.572;2023-05-07T04:36:06;4.72;;;2.92;;
45103;SDS011;30865;51.288;4.572;2023-05-07T04:38:31;5.85;;;2.78;;
45103;SDS011;30865;51.288;4.572;2023-05-07T04:40:58;4.25;;;2.75;;
45103;SDS011;30865;51.288;4.572;2023-05-07T04:43:29;5.63;;;2.88;;
45103;SDS011;30865;51.288;4.572;2023-05-07T04:45:54;3.22;;;2.58;;
45103;SDS011;30865;51.288;4.572;2023-05-07T04:48:20;6.05;;;2.90;;
45103;SDS011;30865;51.288;4.572;2023-05-07T04:50:51;5.45;;;3.20;;
45103;SDS011;30865;51.288;4.572;2023-05-07T04:53:17;3.63;;;2.83;;
45103;SDS011;30865;51.288;4.572;2023-05-07T04:55:43;3.60;;;2.88;;
45103;SDS011;30865;51.288;4.572;2023-05-07T04:58:10;5.03;;;3.30;;
45103;SDS011;30865;51.288;4.572;2023-05-07T05:00:35;4.47;;;2.60;;
45103;SDS011;30865;51.288;4.572;2023-05-07T05:03:01;4.40;;;2.58;;
45103;SDS011;30865;51.288;4.572;2023-05-07T05:05:27;4.15;;;2.75;;
45103;SDS011;30865;51.288;4.572;2023-05-07T05:07:52;4.88;;;3.10;;
45103;SDS011;30865;51.288;4.572;2023-05-07T05:10:17;3.97;;;2.83;;
45103;SDS011;30865;51.288;4.572;2023-05-07T05:12:43;4.97;;;2.90;;
45103;SDS011;30865;51.288;4.572;2023-05-07T05:15:10;5.63;;;3.85;;
45103;SDS011;30865;51.288;4.572;2023-05-07T05:17:37;5.65;;;3.22;;
45103;SDS011;30865;51.288;4.572;2023-05-07T05:20:03;6.75;;;3.40;;
45103;SDS011;30865;51.288;4.572;2023-05-07T05:22:29;3.60;;;3.08;;
45103;SDS011;30865;51.288;4.572;2023-05-07T05:24:56;5.28;;;3.10;;
45103;SDS011;30865;51.288;4.572;2023-05-07T05:27:21;9.40;;;3.42;;
45103;SDS011;30865;51.288;4.572;2023-05-07T05:29:47;4.88;;;3.05;;
45103;SDS011;30865;51.288;4.572;2023-05-07T05:32:17;4.15;;;2.90;;
45103;SDS011;30865;51.288;4.572;2023-05-07T05:34:43;6.20;;;3.53;;
45103;SDS011;30865;51.288;4.572;2023-05-07T05:37:08;4.38;;;3.20;;
45103;SDS011;30865;51.288;4.572;2023-05-07T05:39:34;4.00;;;3.45;;
45103;SDS011;30865;51.288;4.572;2023-05-07T05:41:59;4.60;;;3.53;;
45103;SDS011;30865;51.288;4.572;2023-05-07T05:44:25;4.45;;;3.10;;
45103;SDS011;30865;51.288;4.572;2023-05-07T05:46:53;4.45;;;3.00;;
45103;SDS011;30865;51.288;4.572;2023-05-07T05:49:24;4.43;;;2.83;;
45103;SDS011;30865;51.288;4.572;2023-05-07T05:51:49;5.93;;;3.80;;
45103;SDS011;30865;51.288;4.572;2023-05-07T05:54:15;5.43;;;3.85;;
45103;SDS011;30865;51.288;4.572;2023-05-07T05:56:41;4.18;;;3.45;;
45103;SDS011;30865;51.288;4.572;2023-05-07T05:59:06;6.75;;;4.18;;
45103;SDS011;30865;51.288;4.572;2023-05-07T06:01:32;4.82;;;3.83;;
45103;SDS011;30865;51.288;4.572;2023-05-07T06:03:57;4.38;;;3.67;;
45103;SDS011;30865;51.288;4.572;2023-05-07T06:06:23;5.47;;;3.80;;
45103;SDS011;30865;51.288;4.572;2023-05-07T06:08:49;9.05;;;4.32;;
45103;SDS011;30865;51.288;4.572;2023-05-07T06:11:14;4.63;;;3.78;;
45103;SDS011;30865;51.288;4.572;2023-05-07T06:13:40;5.15;;;3.25;;
45103;SDS011;30865;51.288;4.572;2023-05-07T06:16:05;9.40;;;4.05;;
45103;SDS011;30865;51.288;4.572;2023-05-07T06:18:31;5.80;;;3.78;;
45103;SDS011;30865;51.288;4.572;2023-05-07T06:20:57;7.72;;;3.83;;
45103;SDS011;30865;51.288;4.572;2023-05-07T06:23:22;7.40;;;3.85;;
45103;SDS011;30865;51.288;4.572;2023-05-07T06:25:48;6.10;;;4.03;;
45103;SDS011;30865;51.288;4.572;2023-05-07T06:28:17;6.22;;;4.32;;
45103;SDS011;30865;51.288;4.572;2023-05-07T06:30:43;6.00;;;3.65;;
45103;SDS011;30865;51.288;4.572;2023-05-07T06:33:08;5.97;;;4.07;;
45103;SDS011;30865;51.288;4.572;2023-05-07T06:35:34;7.50;;;4.13;;
45103;SDS011;30865;51.288;4.572;2023-05-07T06:38:00;7.32;;;4.35;;
45103;SDS011;30865;51.288;4.572;2023-05-07T06:40:26;7.07;;;4.07;;
45103;SDS011;30865;51.288;4.572;2023-05-07T06:42:51;8.43;;;4.68;;
45103;SDS011;30865;51.288;4.572;2023-05-07T06:45:17;8.27;;;4.75;;
45103;SDS011;30865;51.288;4.572;2023-05-07T06:47:42;8.60;;;4.05;;
45103;SDS011;30865;51.288;4.572;2023-05-07T06:50:08;8.10;;;4.32;;
45103;SDS011;30865;51.288;4.572;2023-05-07T06:52:34;5.18;;;4.07;;
45103;SDS011;30865;51.288;4.572;2023-05-07T06:55:00;6.05;;;4.10;;
45103;SDS011;30865;51.288;4.572;2023-05-07T06:57:26;5.78;;;4.25;;
45103;SDS011;30865;51.288;4.572;2023-05-07T06:59:52;6.25;;;4.00;;
45103;SDS011;30865;51.288;4.572;2023-05-07T07:02:17;5.65;;;4.10;;
45103;SDS011;30865;51.288;4.572;2023-05-07T07:04:43;6.63;;;3.83;;
45103;SDS011;30865;51.288;4.572;2023-05-07T07:07:09;8.20;;;4.55;;
45103;SDS011;30865;51.288;4.572;2023-05-07T07:09:35;5.80;;;4.10;;
45103;SDS011;30865;51.288;4.572;2023-05-07T07:12:01;4.68;;;3.80;;
45103;SDS011;30865;51.288;4.572;2023-05-07T07:14:26;6.43;;;4.15;;
45103;SDS011;30865;51.288;4.572;2023-05-07T07:16:52;6.40;;;3.47;;
45103;SDS011;30865;51.288;4.572;2023-05-07T07:19:17;5.43;;;3.55;;
45103;SDS011;30865;51.288;4.572;2023-05-07T07:21:43;5.25;;;3.85;;
45103;SDS011;30865;51.288;4.572;2023-05-07T07:24:09;7.60;;;4.20;;
45103;SDS011;30865;51.288;4.572;2023-05-07T07:26:35;5.55;;;3.47;;
45103;SDS011;30865;51.288;4.572;2023-05-07T07:29:00;5.35;;;3.28;;
45103;SDS011;30865;51.288;4.572;2023-05-07T07:31:26;5.75;;;3.35;;
45103;SDS011;30865;51.288;4.572;2023-05-07T07:33:51;5.60;;;3.33;;
45103;SDS011;30865;51.288;4.572;2023-05-07T07:36:17;5.88;;;3.38;;
45103;SDS011;30865;51.288;4.572;2023-05-07T07:38:42;4.85;;;2.75;;
45103;SDS011;30865;51.288;4.572;2023-05-07T07:41:08;3.00;;;2.67;;
45103;SDS011;30865;51.288;4.572;2023-05-07T07:43:34;2.72;;;2.20;;
45103;SDS011;30865;51.288;4.572;2023-05-07T07:46:10;3.58;;;2.03;;
45103;SDS011;30865;51.288;4.572;2023-05-07T07:48:35;6.63;;;2.20;;
45103;SDS011;30865;51.288;4.572;2023-05-07T07:51:01;4.63;;;2.58;;
45103;SDS011;30865;51.288;4.572;2023-05-07T07:53:26;4.00;;;2.03;;
45103;SDS011;30865;51.288;4.572;2023-05-07T07:55:51;4.55;;;2.25;;
45103;SDS011;30865;51.288;4.572;2023-05-07T07:58:17;2.17;;;1.98;;
45103;SDS011;30865;51.288;4.572;2023-05-07T08:00:43;3.28;;;2.28;;
45103;SDS011;30865;51.288;4.572;2023-05-07T08:03:09;2.90;;;2.15;;
45103;SDS011;30865;51.288;4.572;2023-05-07T08:05:35;2.95;;;1.90;;
45103;SDS011;30865;51.288;4.572;2023-05-07T08:08:01;2.97;;;2.03;;
45103;SDS011;30865;51.288;4.572;2023-05-07T08:10:27;2.75;;;2.35;;
45103;SDS011;30865;51.288;4.572;2023-05-07T08:12:52;2.38;;;2.17;;
45103;SDS011;30865;51.288;4.572;2023-05-07T08:15:18;4.00;;;2.38;;
45103;SDS011;30865;51.288;4.572;2023-05-07T08:17:43;2.85;;;2.25;;
45103;SDS011;30865;51.288;4.572;2023-05-07T08:20:09;4.60;;;2.38;;
45103;SDS011;30865;51.288;4.572;2023-05-07T08:22:35;5.15;;;2.72;;
45103;SDS011;30865;51.288;4.572;2023-05-07T08:25:01;3.65;;;2.45;;
45103;SDS011;30865;51.288;4.572;2023-05-07T08:27:27;2.97;;;2.67;;
45103;SDS011;30865;51.288;4.572;2023-05-07T08:29:52;2.35;;;2.00;;
45103;SDS011;30865;51.288;4.572;2023-05-07T08:32:18;3.22;;;2.53;;
45103;SDS011;30865;51.288;4.572;2023-05-07T08:34:44;3.70;;;2.42;;
45103;SDS011;30865;51.288;4.572;2023-05-07T08:37:09;2.90;;;2.38;;
45103;SDS011;30865;51.288;4.572;2023-05-07T08:39:35;3.33;;;1.77;;
45103;SDS011;30865;51.288;4.572;2023-05-07T08:42:00;4.57;;;2.30;;
45103;SDS011;30865;51.288;4.572;2023-05-07T08:44:29;5.40;;;2.20;;
45103;SDS011;30865;51.288;4.572;2023-05-07T08:46:58;4.53;;;2.47;;
45103;SDS011;30865;51.288;4.572;2023-05-07T08:49:25;2.60;;;2.05;;
45103;SDS011;30865;51.288;4.572;2023-05-07T08:51:52;2.40;;;2.17;;
45103;SDS011;30865;51.288;4.572;2023-05-07T08:54:17;3.50;;;2.60;;
45103;SDS011;30865;51.288;4.572;2023-05-07T08:56:44;4.82;;;2.70;;
45103;SDS011;30865;51.288;4.572;2023-05-07T08:59:10;2.70;;;2.20;;
45103;SDS011;30865;51.288;4.572;2023-05-07T09:01:35;3.53;;;1.85;;
45103;SDS011;30865;51.288;4.572;2023-05-07T09:04:01;3.88;;;2.40;;
45103;SDS011;30865;51.288;4.572;2023-05-07T09:06:27;3.10;;;2.35;;
45103;SDS011;30865;51.288;4.572;2023-05-07T09:08:53;2.80;;;2.20;;
45103;SDS011;30865;51.288;4.572;2023-05-07T09:11:20;2.28;;;2.08;;
45103;SDS011;30865;51.288;4.572;2023-05-07T09:13:47;2.20;;;1.70;;
45103;SDS011;30865;51.288;4.572;2023-05-07T09:16:12;3.88;;;2.60;;
45103;SDS011;30865;51.288;4.572;2023-05-07T09:18:42;3.65;;;2.17;;
45103;SDS011;30865;51.288;4.572;2023-05-07T09:21:11;3.83;;;2.08;;
45103;SDS011;30865;51.288;4.572;2023-05-07T09:23:42;6.22;;;2.55;;
45103;SDS011;30865;51.288;4.572;2023-05-07T09:26:07;2.92;;;2.10;;
45103;SDS011;30865;51.288;4.572;2023-05-07T09:28:37;2.20;;;2.00;;
45103;SDS011;30865;51.288;4.572;2023-05-07T09:31:05;3.47;;;2.53;;
45103;SDS011;30865;51.288;4.572;2023-05-07T09:33:30;4.18;;;2.80;;
45103;SDS011;30865;51.288;4.572;2023-05-07T09:36:06;1.83;;;1.73;;
45103;SDS011;30865;51.288;4.572;2023-05-07T09:38:33;2.92;;;1.88;;
45103;SDS011;30865;51.288;4.572;2023-05-07T09:41:10;2.38;;;1.92;;
45103;SDS011;30865;51.288;4.572;2023-05-07T09:43:37;1.95;;;1.77;;
45103;SDS011;30865;51.288;4.572;2023-05-07T09:46:09;3.63;;;1.70;;
45103;SDS011;30865;51.288;4.572;2023-05-07T09:48:38;1.80;;;1.70;;
45103;SDS011;30865;51.288;4.572;2023-05-07T09:51:06;3.55;;;1.75;;
45103;SDS011;30865;51.288;4.572;2023-05-07T09:53:35;4.28;;;1.63;;
45103;SDS011;30865;51.288;4.572;2023-05-07T09:56:02;2.45;;;1.60;;
45103;SDS011;30865;51.288;4.572;2023-05-07T09:58:28;2.13;;;1.63;;
45103;SDS011;30865;51.288;4.572;2023-05-07T10:00:54;3.15;;;1.60;;
45103;SDS011;30865;51.288;4.572;2023-05-07T10:03:21;1.75;;;1.50;;
45103;SDS011;30865;51.288;4.572;2023-05-07T10:05:47;2.55;;;1.60;;
45103;SDS011;30865;51.288;4.572;2023-05-07T10:08:14;1.90;;;1.60;;
45103;SDS011;30865;51.288;4.572;2023-05-07T10:10:41;2.03;;;1.83;;
45103;SDS011;30865;51.288;4.572;2023-05-07T10:13:07;3.10;;;1.77;;
45103;SDS011;30865;51.288;4.572;2023-05-07T10:15:35;2.28;;;1.75;;
45103;SDS011;30865;51.288;4.572;2023-05-07T10:18:02;1.60;;;1.50;;
45103;SDS011;30865;51.288;4.572;2023-05-07T10:20:29;2.05;;;1.35;;
45103;SDS011;30865;51.288;4.572;2023-05-07T10:22:56;3.45;;;1.38;;
45103;SDS011;30865;51.288;4.572;2023-05-07T10:25:25;1.95;;;1.35;;
45103;SDS011;30865;51.288;4.572;2023-05-07T10:27:53;3.22;;;1.42;;
45103;SDS011;30865;51.288;4.572;2023-05-07T10:30:26;3.08;;;1.80;;
45103;SDS011;30865;51.288;4.572;2023-05-07T10:33:03;3.17;;;1.67;;
45103;SDS011;30865;51.288;4.572;2023-05-07T10:35:36;2.67;;;1.50;;
45103;SDS011;30865;51.288;4.572;2023-05-07T10:38:08;5.57;;;1.60;;
45103;SDS011;30865;51.288;4.572;2023-05-07T10:40:34;2.65;;;1.50;;
45103;SDS011;30865;51.288;4.572;2023-05-07T10:43:00;2.17;;;1.98;;
45103;SDS011;30865;51.288;4.572;2023-05-07T10:45:29;1.47;;;1.33;;
45103;SDS011;30865;51.288;4.572;2023-05-07T10:48:09;5.65;;;1.60;;
45103;SDS011;30865;51.288;4.572;2023-05-07T10:50:36;1.95;;;1.38;;
45103;SDS011;30865;51.288;4.572;2023-05-07T10:55:47;2.10;;;1.65;;
45103;SDS011;30865;51.288;4.572;2023-05-07T11:00:47;2.17;;;1.48;;
45103;SDS011;30865;51.288;4.572;2023-05-07T11:03:13;5.07;;;1.67;;
45103;SDS011;30865;51.288;4.572;2023-05-07T11:05:40;2.30;;;1.77;;
45103;SDS011;30865;51.288;4.572;2023-05-07T11:08:06;2.78;;;1.40;;
45103;SDS011;30865;51.288;4.572;2023-05-07T11:10:52;3.38;;;1.35;;
45103;SDS011;30865;51.288;4.572;2023-05-07T11:18:53;2.78;;;1.98;;
45103;SDS011;30865;51.288;4.572;2023-05-07T11:21:39;1.48;;;1.35;;
45103;SDS011;30865;51.288;4.572;2023-05-07T11:24:08;2.30;;;2.10;;
45103;SDS011;30865;51.288;4.572;2023-05-07T11:26:50;4.15;;;1.40;;
45103;SDS011;30865;51.288;4.572;2023-05-07T11:29:17;2.65;;;1.55;;
45103;SDS011;30865;51.288;4.572;2023-05-07T11:31:45;3.85;;;1.35;;
45103;SDS011;30865;51.288;4.572;2023-05-07T11:34:24;3.13;;;1.73;;
45103;SDS011;30865;51.288;4.572;2023-05-07T11:36:51;3.50;;;1.35;;
45103;SDS011;30865;51.288;4.572;2023-05-07T11:39:23;2.67;;;1.65;;
45103;SDS011;30865;51.288;4.572;2023-05-07T11:41:53;2.17;;;1.17;;
45103;SDS011;30865;51.288;4.572;2023-05-07T11:44:18;2.38;;;1.52;;
45103;SDS011;30865;51.288;4.572;2023-05-07T11:46:44;2.40;;;1.58;;
45103;SDS011;30865;51.288;4.572;2023-05-07T11:49:10;4.10;;;1.50;;
45103;SDS011;30865;51.288;4.572;2023-05-07T11:51:35;1.80;;;1.40;;
45103;SDS011;30865;51.288;4.572;2023-05-07T11:54:03;2.53;;;1.30;;
45103;SDS011;30865;51.288;4.572;2023-05-07T11:56:33;1.65;;;1.30;;
45103;SDS011;30865;51.288;4.572;2023-05-07T11:59:00;1.98;;;1.15;;
45103;SDS011;30865;51.288;4.572;2023-05-07T12:01:26;1.80;;;1.30;;
45103;SDS011;30865;51.288;4.572;2023-05-07T12:03:51;1.60;;;1.30;;
45103;SDS011;30865;51.288;4.572;2023-05-07T12:06:17;3.88;;;1.40;;
45103;SDS011;30865;51.288;4.572;2023-05-07T12:08:43;5.38;;;1.30;;
45103;SDS011;30865;51.288;4.572;2023-05-07T12:11:13;2.47;;;1.33;;
45103;SDS011;30865;51.288;4.572;2023-05-07T12:13:42;2.70;;;1.15;;
45103;SDS011;30865;51.288;4.572;2023-05-07T12:16:08;2.58;;;1.48;;
45103;SDS011;30865;51.288;4.572;2023-05-07T12:18:35;3.15;;;1.58;;
45103;SDS011;30865;51.288;4.572;2023-05-07T12:21:01;6.85;;;2.17;;
45103;SDS011;30865;51.288;4.572;2023-05-07T12:23:28;12.18;;;3.95;;
45103;SDS011;30865;51.288;4.572;2023-05-07T12:25:55;11.35;;;3.67;;
45103;SDS011;30865;51.288;4.572;2023-05-07T12:28:21;20.15;;;4.07;;
45103;SDS011;30865;51.288;4.572;2023-05-07T12:30:47;7.47;;;3.80;;
45103;SDS011;30865;51.288;4.572;2023-05-07T12:33:19;7.80;;;3.38;;
45103;SDS011;30865;51.288;4.572;2023-05-07T12:35:48;12.13;;;3.88;;
45103;SDS011;30865;51.288;4.572;2023-05-07T12:38:15;5.18;;;3.05;;
45103;SDS011;30865;51.288;4.572;2023-05-07T12:40:48;5.80;;;3.50;;
45103;SDS011;30865;51.288;4.572;2023-05-07T12:45:42;3.78;;;2.70;;
45103;SDS011;30865;51.288;4.572;2023-05-07T12:48:11;8.10;;;3.10;;
45103;SDS011;30865;51.288;4.572;2023-05-07T12:50:37;3.55;;;2.97;;
45103;SDS011;30865;51.288;4.572;2023-05-07T12:53:03;7.82;;;3.47;;
45103;SDS011;30865;51.288;4.572;2023-05-07T12:55:40;9.20;;;3.92;;
45103;SDS011;30865;51.288;4.572;2023-05-07T12:58:14;6.50;;;3.70;;
45103;SDS011;30865;51.288;4.572;2023-05-07T13:05:50;9.93;;;4.30;;
45103;SDS011;30865;51.288;4.572;2023-05-07T13:10:58;12.65;;;3.80;;
45103;SDS011;30865;51.288;4.572;2023-05-07T13:13:36;9.20;;;3.55;;
45103;SDS011;30865;51.288;4.572;2023-05-07T13:16:03;15.80;;;3.72;;
45103;SDS011;30865;51.288;4.572;2023-05-07T13:18:30;8.20;;;2.80;;
45103;SDS011;30865;51.288;4.572;2023-05-07T13:20:56;4.68;;;3.17;;
45103;SDS011;30865;51.288;4.572;2023-05-07T13:23:22;6.30;;;3.90;;
45103;SDS011;30865;51.288;4.572;2023-05-07T13:25:48;9.27;;;2.33;;
45103;SDS011;30865;51.288;4.572;2023-05-07T13:28:14;3.13;;;1.38;;
45103;SDS011;30865;51.288;4.572;2023-05-07T13:30:39;4.55;;;1.42;;
45103;SDS011;30865;51.288;4.572;2023-05-07T13:33:05;4.75;;;1.75;;
45103;SDS011;30865;51.288;4.572;2023-05-07T13:35:32;4.85;;;1.83;;
45103;SDS011;30865;51.288;4.572;2023-05-07T13:37:57;1.40;;;1.00;;
45103;SDS011;30865;51.288;4.572;2023-05-07T13:40:23;1.02;;;0.90;;
45103;SDS011;30865;51.288;4.572;2023-05-07T13:42:49;5.30;;;1.40;;
45103;SDS011;30865;51.288;4.572;2023-05-07T13:45:15;2.45;;;1.40;;
45103;SDS011;30865;51.288;4.572;2023-05-07T13:47:41;5.10;;;1.95;;
45103;SDS011;30865;51.288;4.572;2023-05-07T13:50:07;2.30;;;1.33;;
45103;SDS011;30865;51.288;4.572;2023-05-07T13:52:34;2.30;;;1.20;;
45103;SDS011;30865;51.288;4.572;2023-05-07T13:54:59;3.47;;;1.10;;
45103;SDS011;30865;51.288;4.572;2023-05-07T13:57:25;2.55;;;1.30;;
45103;SDS011;30865;51.288;4.572;2023-05-07T13:59:50;3.83;;;1.38;;
45103;SDS011;30865;51.288;4.572;2023-05-07T14:02:16;3.40;;;1.70;;
45103;SDS011;30865;51.288;4.572;2023-05-07T14:04:41;1.38;;;1.25;;
45103;SDS011;30865;51.288;4.572;2023-05-07T14:07:07;2.65;;;1.83;;
45103;SDS011;30865;51.288;4.572;2023-05-07T14:09:33;4.38;;;1.23;;
45103;SDS011;30865;51.288;4.572;2023-05-07T14:11:58;2.97;;;1.30;;
45103;SDS011;30865;51.288;4.572;2023-05-07T14:14:25;1.60;;;1.50;;
45103;SDS011;30865;51.288;4.572;2023-05-07T14:16:50;5.15;;;1.90;;
45103;SDS011;30865;51.288;4.572;2023-05-07T14:19:16;3.60;;;1.80;;
45103;SDS011;30865;51.288;4.572;2023-05-07T14:21:41;1.88;;;1.48;;
45103;SDS011;30865;51.288;4.572;2023-05-07T14:24:07;2.60;;;1.77;;
45103;SDS011;30865;51.288;4.572;2023-05-07T14:26:35;2.58;;;1.80;;
45103;SDS011;30865;51.288;4.572;2023-05-07T14:29:02;2.05;;;1.60;;
45103;SDS011;30865;51.288;4.572;2023-05-07T14:31:28;2.63;;;1.80;;
45103;SDS011;30865;51.288;4.572;2023-05-07T14:33:53;1.85;;;1.65;;
45103;SDS011;30865;51.288;4.572;2023-05-07T14:36:19;2.33;;;2.13;;
45103;SDS011;30865;51.288;4.572;2023-05-07T14:38:46;4.55;;;2.15;;
45103;SDS011;30865;51.288;4.572;2023-05-07T14:41:12;4.18;;;2.15;;
45103;SDS011;30865;51.288;4.572;2023-05-07T14:43:37;4.13;;;2.45;;
45103;SDS011;30865;51.288;4.572;2023-05-07T14:46:03;3.28;;;2.53;;
45103;SDS011;30865;51.288;4.572;2023-05-07T14:48:28;4.05;;;2.65;;
45103;SDS011;30865;51.288;4.572;2023-05-07T14:50:54;3.63;;;2.95;;
45103;SDS011;30865;51.288;4.572;2023-05-07T14:53:19;4.28;;;2.25;;
45103;SDS011;30865;51.288;4.572;2023-05-07T14:55:45;2.95;;;2.17;;
45103;SDS011;30865;51.288;4.572;2023-05-07T14:58:11;5.30;;;3.05;;
45103;SDS011;30865;51.288;4.572;2023-05-07T15:00:37;4.85;;;2.17;;
45103;SDS011;30865;51.288;4.572;2023-05-07T15:03:04;2.20;;;2.00;;
45103;SDS011;30865;51.288;4.572;2023-05-07T15:05:31;2.97;;;2.30;;